Terminal Aerodrome Forecast
Issued by NWS

Home | Current Version | Previous Version | Text Only | Print | Product List | Glossary On
Versions: 1 2 3 4 5 6 7 8 9 10 11 12 13 14 15 16 17 18
248
FTUS43 KICT 281139
TAFHUT
TAF
KHUT 281139Z 2812/2912 14006KT P6SM SCT015 OVC025
     FM281400 16007KT P6SM SCT030
     FM281600 24007KT P6SM SCT040
     FM290000 04009KT P6SM VCSH SCT015 BKN120
     FM290300 01012KT P6SM VCSH OVC015
     FM290600 02016G24KT P6SM -SHRA OVC010
     FM291100 01020G28KT 5SM SHRA OVC005=

USA.gov is the U.S. government's official web portal to all federal, state and local government web resources and services.